createdAt,value
2018-12-13T00:00:46.898Z,807.43
2018-12-13T00:01:46.902Z,807.40
2018-12-13T00:02:46.896Z,807.44
2018-12-13T00:03:46.898Z,807.45
2018-12-13T00:04:46.920Z,807.43
2018-12-13T00:05:46.908Z,807.46
2018-12-13T00:06:46.905Z,807.40
2018-12-13T00:07:46.905Z,807.42
2018-12-13T00:08:46.913Z,807.42
2018-12-13T00:09:46.911Z,807.43
2018-12-13T00:10:46.913Z,807.41
2018-12-13T00:11:46.912Z,807.37
2018-12-13T00:12:46.913Z,807.38
2018-12-13T00:13:46.915Z,807.40
2018-12-13T00:14:46.924Z,807.37
2018-12-13T00:15:46.918Z,807.35
2018-12-13T00:16:46.925Z,807.30
2018-12-13T00:17:46.925Z,807.33
2018-12-13T00:18:46.929Z,807.34
2018-12-13T00:19:46.928Z,807.28
2018-12-13T00:20:46.929Z,807.31
2018-12-13T00:21:46.929Z,807.25
2018-12-13T00:22:46.933Z,807.26
2018-12-13T00:23:46.929Z,807.27
2018-12-13T00:24:46.936Z,807.26
2018-12-13T00:25:46.934Z,807.25
2018-12-13T00:26:46.940Z,807.25
2018-12-13T00:27:46.940Z,807.26
2018-12-13T00:28:46.940Z,807.25
2018-12-13T00:29:46.945Z,807.22
2018-12-13T00:30:46.950Z,807.23
2018-12-13T00:31:46.943Z,807.19
2018-12-13T00:32:46.947Z,807.22
2018-12-13T00:33:46.949Z,807.22
2018-12-13T00:34:46.947Z,807.22
2018-12-13T00:35:46.956Z,807.20
2018-12-13T00:36:46.958Z,807.17
2018-12-13T00:37:46.953Z,807.17
2018-12-13T00:38:46.955Z,807.16
2018-12-13T00:39:46.959Z,807.15
2018-12-13T00:40:46.957Z,807.17
2018-12-13T00:41:46.970Z,807.15
2018-12-13T00:42:46.965Z,807.16
2018-12-13T00:43:46.963Z,807.14
2018-12-13T00:44:46.966Z,807.15
2018-12-13T00:45:46.966Z,807.17
2018-12-13T00:46:46.967Z,807.12
2018-12-13T00:47:46.971Z,807.14
2018-12-13T00:48:46.970Z,807.12
2018-12-13T00:49:46.974Z,807.08
2018-12-13T00:50:46.978Z,807.07
2018-12-13T00:51:46.975Z,807.06
2018-12-13T00:52:46.976Z,807.04
2018-12-13T00:53:46.977Z,807.00
2018-12-13T00:54:46.979Z,807.01
2018-12-13T00:55:46.980Z,807.03
2018-12-13T00:56:46.981Z,807.00
2018-12-13T00:57:46.985Z,806.98
2018-12-13T00:58:47.063Z,806.99
2018-12-13T00:59:46.993Z,806.98
2018-12-13T01:00:46.989Z,806.97
2018-12-13T01:01:46.992Z,806.93
2018-12-13T01:02:46.990Z,806.95
2018-12-13T01:03:46.992Z,806.93
2018-12-13T01:04:46.998Z,806.92
2018-12-13T01:05:46.998Z,806.88
2018-12-13T01:06:46.996Z,806.86
2018-12-13T01:07:47.003Z,806.90
2018-12-13T01:08:46.999Z,806.88
2018-12-13T01:09:47.000Z,806.83
2018-12-13T01:10:47.005Z,806.90
2018-12-13T01:11:47.009Z,806.88
2018-12-13T01:12:47.005Z,806.93
2018-12-13T01:13:47.004Z,806.88
2018-12-13T01:14:47.008Z,806.93
2018-12-13T01:15:47.007Z,806.92
2018-12-13T01:16:47.011Z,806.93
2018-12-13T01:17:47.016Z,806.92
2018-12-13T01:18:47.014Z,806.90
2018-12-13T01:19:47.013Z,806.91
2018-12-13T01:20:47.017Z,806.88
2018-12-13T01:21:47.019Z,806.90
2018-12-13T01:22:47.018Z,806.87
2018-12-13T01:23:47.021Z,806.85
2018-12-13T01:24:47.021Z,806.91
2018-12-13T01:25:47.024Z,806.86
2018-12-13T01:26:47.023Z,806.86
2018-12-13T01:27:47.028Z,806.89
2018-12-13T01:28:47.025Z,806.82
2018-12-13T01:29:47.027Z,806.83
2018-12-13T01:30:47.029Z,806.87
2018-12-13T01:31:47.031Z,806.87
2018-12-13T01:32:47.033Z,806.84
2018-12-13T01:33:47.041Z,806.85
2018-12-13T01:34:47.033Z,806.85
2018-12-13T01:35:47.036Z,806.85
2018-12-13T01:36:52.385Z,806.87
2018-12-13T01:37:47.038Z,806.86
2018-12-13T01:38:47.039Z,806.85
2018-12-13T01:39:47.042Z,806.87
2018-12-13T01:40:47.042Z,806.88
2018-12-13T01:41:47.046Z,806.80
2018-12-13T01:42:47.047Z,806.79
2018-12-13T01:43:47.048Z,806.79
2018-12-13T01:44:47.047Z,806.80
2018-12-13T01:45:47.051Z,806.80
2018-12-13T01:46:47.051Z,806.79
2018-12-13T01:47:47.051Z,806.77
2018-12-13T01:48:47.054Z,806.76
2018-12-13T01:49:47.055Z,806.77
2018-12-13T01:50:47.056Z,806.70
2018-12-13T01:51:47.054Z,806.69
2018-12-13T01:52:47.063Z,806.70
2018-12-13T01:53:47.061Z,806.72
2018-12-13T01:54:47.061Z,806.69
2018-12-13T01:55:47.061Z,806.67
2018-12-13T01:56:47.062Z,806.66
2018-12-13T01:57:47.074Z,806.66
2018-12-13T01:58:47.065Z,806.68
2018-12-13T01:59:47.067Z,806.67
2018-12-13T02:00:47.066Z,806.65
2018-12-13T02:01:47.071Z,806.63
2018-12-13T02:02:47.070Z,806.63
2018-12-13T02:03:47.073Z,806.64
2018-12-13T02:04:47.071Z,806.60
2018-12-13T02:05:47.074Z,806.58
2018-12-13T02:06:47.073Z,806.58
2018-12-13T02:07:47.078Z,806.56
2018-12-13T02:08:47.075Z,806.56
2018-12-13T02:09:47.082Z,806.57
2018-12-13T02:10:47.084Z,806.55
2018-12-13T02:11:47.081Z,806.53
2018-12-13T02:12:47.083Z,806.50
2018-12-13T02:13:47.087Z,806.46
2018-12-13T02:14:47.084Z,806.45
2018-12-13T02:15:47.085Z,806.44
2018-12-13T02:16:47.084Z,806.47
2018-12-13T02:17:47.086Z,806.48
2018-12-13T02:18:47.090Z,806.45
2018-12-13T02:19:47.091Z,806.42
2018-12-13T02:20:47.087Z,806.43
2018-12-13T02:21:47.091Z,806.45
2018-12-13T02:22:47.091Z,806.48
2018-12-13T02:23:47.093Z,806.41
2018-12-13T02:24:47.094Z,806.42
2018-12-13T02:25:47.095Z,806.40
2018-12-13T02:26:47.098Z,806.40
2018-12-13T02:27:47.099Z,806.41
2018-12-13T02:28:47.097Z,806.39
2018-12-13T02:29:47.098Z,806.38
2018-12-13T02:30:47.101Z,806.33
2018-12-13T02:31:47.103Z,806.34
2018-12-13T02:32:47.102Z,806.34
2018-12-13T02:33:47.103Z,806.29
2018-12-13T02:34:47.111Z,806.33
2018-12-13T02:35:47.107Z,806.32
2018-12-13T02:36:47.120Z,806.28
2018-12-13T02:37:47.107Z,806.31
2018-12-13T02:38:47.106Z,806.32
2018-12-13T02:39:47.108Z,806.30
2018-12-13T02:40:47.113Z,806.34
2018-12-13T02:41:47.111Z,806.33
2018-12-13T02:42:47.120Z,806.31
2018-12-13T02:43:47.111Z,806.31
2018-12-13T02:44:47.119Z,806.31
2018-12-13T02:45:47.113Z,806.28
2018-12-13T02:46:47.179Z,806.25
2018-12-13T02:47:47.117Z,806.29
2018-12-13T02:48:47.116Z,806.27
2018-12-13T02:49:47.120Z,806.23
2018-12-13T02:50:47.118Z,806.29
2018-12-13T02:51:47.119Z,806.29
2018-12-13T02:52:47.120Z,806.26
2018-12-13T02:53:47.122Z,806.29
2018-12-13T02:54:47.121Z,806.32
2018-12-13T02:55:47.123Z,806.25
2018-12-13T02:56:47.123Z,806.26
2018-12-13T02:57:47.131Z,806.22
2018-12-13T02:58:47.127Z,806.18
2018-12-13T02:59:47.131Z,806.18
2018-12-13T03:00:47.128Z,806.21
2018-12-13T03:01:47.129Z,806.18
2018-12-13T03:02:47.225Z,806.20
2018-12-13T03:03:47.130Z,806.14
2018-12-13T03:04:47.131Z,806.16
2018-12-13T03:05:47.134Z,806.15
2018-12-13T03:06:47.136Z,806.13
2018-12-13T03:07:47.135Z,806.11
2018-12-13T03:08:47.138Z,806.08
2018-12-13T03:09:47.136Z,806.08
2018-12-13T03:10:47.137Z,806.05
2018-12-13T03:11:47.140Z,806.07
2018-12-13T03:12:47.141Z,806.06
2018-12-13T03:13:47.144Z,806.07
2018-12-13T03:14:47.141Z,806.07
2018-12-13T03:15:47.141Z,806.02
2018-12-13T03:16:47.143Z,806.00
2018-12-13T03:17:47.144Z,806.00
2018-12-13T03:18:47.153Z,806.02
2018-12-13T03:19:47.148Z,806.00
2018-12-13T03:20:47.148Z,805.99
2018-12-13T03:21:47.159Z,805.99
2018-12-13T03:22:47.148Z,806.02
2018-12-13T03:23:47.158Z,805.99
2018-12-13T03:24:47.153Z,806.00
2018-12-13T03:25:47.150Z,805.99
2018-12-13T03:26:47.152Z,805.99
2018-12-13T03:27:47.154Z,806.00
2018-12-13T03:28:47.152Z,805.98
2018-12-13T03:29:47.155Z,806.02
2018-12-13T03:30:47.159Z,805.97
2018-12-13T03:31:47.169Z,806.01
2018-12-13T03:32:47.166Z,806.02
2018-12-13T03:33:47.159Z,806.00
2018-12-13T03:34:47.159Z,806.01
2018-12-13T03:35:47.157Z,806.03
2018-12-13T03:36:47.163Z,805.98
2018-12-13T03:37:47.158Z,806.01
2018-12-13T03:38:47.160Z,806.00
2018-12-13T03:39:47.164Z,805.99
2018-12-13T03:40:47.162Z,805.96
2018-12-13T03:41:47.168Z,805.94
2018-12-13T03:42:47.263Z,805.93
2018-12-13T03:43:47.178Z,805.89
2018-12-13T03:44:47.168Z,805.94
2018-12-13T03:45:47.167Z,805.89
2018-12-13T03:46:47.167Z,805.87
2018-12-13T03:47:47.166Z,805.89
2018-12-13T03:48:47.171Z,805.89
2018-12-13T03:49:47.177Z,805.85
2018-12-13T03:50:47.170Z,805.83
2018-12-13T03:51:47.173Z,805.79
2018-12-13T03:52:47.171Z,805.78
2018-12-13T03:53:47.174Z,805.79
2018-12-13T03:54:47.175Z,805.81
2018-12-13T03:55:47.173Z,805.77
2018-12-13T03:56:47.174Z,805.78
2018-12-13T03:57:47.175Z,805.77
2018-12-13T03:58:47.180Z,805.73
2018-12-13T03:59:47.179Z,805.75
2018-12-13T04:00:47.178Z,805.75
2018-12-13T04:01:47.179Z,805.72
2018-12-13T04:02:47.180Z,805.74
2018-12-13T04:03:47.197Z,805.70
2018-12-13T04:04:47.179Z,805.68
2018-12-13T04:05:47.189Z,805.70
2018-12-13T04:06:47.181Z,805.65
2018-12-13T04:07:47.184Z,805.63
2018-12-13T04:08:47.186Z,805.61
2018-12-13T04:09:47.251Z,805.58
2018-12-13T04:10:47.188Z,805.59
2018-12-13T04:11:47.186Z,805.57
2018-12-13T04:12:47.193Z,805.62
2018-12-13T04:13:47.193Z,805.56
2018-12-13T04:14:47.186Z,805.56
2018-12-13T04:15:47.187Z,805.59
2018-12-13T04:16:47.190Z,805.60
2018-12-13T04:17:47.200Z,805.55
2018-12-13T04:18:47.193Z,805.54
2018-12-13T04:19:47.194Z,805.55
2018-12-13T04:20:47.190Z,805.58
2018-12-13T04:21:47.191Z,805.56
2018-12-13T04:22:47.193Z,805.55
2018-12-13T04:23:47.191Z,805.51
2018-12-13T04:24:47.197Z,805.54
2018-12-13T04:25:47.197Z,805.53
2018-12-13T04:26:47.196Z,805.52
2018-12-13T04:27:47.195Z,805.53
2018-12-13T04:28:47.196Z,805.51
2018-12-13T04:29:47.196Z,805.54
2018-12-13T04:30:47.203Z,805.57
2018-12-13T04:31:47.195Z,805.53
2018-12-13T04:32:47.196Z,805.52
2018-12-13T04:33:47.200Z,805.50
2018-12-13T04:34:47.204Z,805.53
2018-12-13T04:35:47.207Z,805.51
2018-12-13T04:36:47.211Z,805.53
2018-12-13T04:37:47.200Z,805.53
2018-12-13T04:38:47.202Z,805.47
2018-12-13T04:39:47.204Z,805.45
2018-12-13T04:40:47.204Z,805.51
2018-12-13T04:41:47.212Z,805.48
2018-12-13T04:42:47.204Z,805.50
2018-12-13T04:43:47.204Z,805.49
2018-12-13T04:44:47.205Z,805.48
2018-12-13T04:45:47.207Z,805.48
2018-12-13T04:46:47.205Z,805.51
2018-12-13T04:47:47.213Z,805.46
2018-12-13T04:48:47.211Z,805.50
2018-12-13T04:49:47.207Z,805.49
2018-12-13T04:50:47.208Z,805.49
2018-12-13T04:51:47.212Z,805.53
2018-12-13T04:52:47.209Z,805.57
2018-12-13T04:53:47.208Z,805.51
2018-12-13T04:54:47.211Z,805.52
2018-12-13T04:55:47.210Z,805.50
2018-12-13T04:56:47.215Z,805.54
2018-12-13T04:57:47.213Z,805.51
2018-12-13T04:58:47.218Z,805.47
2018-12-13T04:59:47.215Z,805.46
2018-12-13T05:00:47.214Z,805.47
2018-12-13T05:01:47.213Z,805.45
2018-12-13T05:02:47.214Z,805.44
2018-12-13T05:03:47.217Z,805.46
2018-12-13T05:04:47.216Z,805.43
2018-12-13T05:05:47.217Z,805.47
2018-12-13T05:06:47.917Z,805.45
2018-12-13T05:07:47.222Z,805.45
2018-12-13T05:08:47.223Z,805.42
2018-12-13T05:09:47.225Z,805.44
2018-12-13T05:10:47.223Z,805.43
2018-12-13T05:11:47.219Z,805.42
2018-12-13T05:12:47.221Z,805.46
2018-12-13T05:13:47.221Z,805.48
2018-12-13T05:14:47.225Z,805.49
2018-12-13T05:15:47.222Z,805.46
2018-12-13T05:16:47.223Z,805.50
2018-12-13T05:17:47.228Z,805.49
2018-12-13T05:18:47.224Z,805.49
2018-12-13T05:19:47.224Z,805.43
2018-12-13T05:20:47.224Z,805.47
2018-12-13T05:21:47.225Z,805.49
2018-12-13T05:22:47.226Z,805.52
2018-12-13T05:23:47.227Z,805.48
2018-12-13T05:24:47.227Z,805.46
2018-12-13T05:25:47.226Z,805.49
2018-12-13T05:26:47.240Z,805.48
2018-12-13T05:27:47.227Z,805.46
2018-12-13T05:28:47.228Z,805.47
2018-12-13T05:29:47.229Z,805.44
2018-12-13T05:30:47.231Z,805.49
2018-12-13T05:31:47.231Z,805.49
2018-12-13T05:32:47.229Z,805.48
2018-12-13T05:33:47.234Z,805.43
2018-12-13T05:34:47.236Z,805.44
2018-12-13T05:35:47.230Z,805.41
2018-12-13T05:36:47.231Z,805.41
2018-12-13T05:37:48.327Z,805.47
2018-12-13T05:38:47.234Z,805.46
2018-12-13T05:39:47.235Z,805.40
2018-12-13T05:40:47.235Z,805.46
2018-12-13T05:41:47.234Z,805.46
2018-12-13T05:42:47.236Z,805.44
2018-12-13T05:43:47.235Z,805.41
2018-12-13T05:44:47.237Z,805.43
2018-12-13T05:45:47.235Z,805.44
2018-12-13T05:46:47.238Z,805.47
2018-12-13T05:47:47.236Z,805.49
2018-12-13T05:48:47.237Z,805.44
2018-12-13T05:49:47.237Z,805.46
2018-12-13T05:50:47.237Z,805.46
2018-12-13T05:51:47.237Z,805.45
2018-12-13T05:52:47.237Z,805.48
2018-12-13T05:53:47.243Z,805.46
2018-12-13T05:54:47.243Z,805.50
2018-12-13T05:55:47.251Z,805.49
2018-12-13T05:56:47.239Z,805.48
2018-12-13T05:57:47.241Z,805.51
2018-12-13T05:58:47.244Z,805.51
2018-12-13T05:59:47.238Z,805.51
2018-12-13T06:00:47.241Z,805.53
2018-12-13T06:01:47.245Z,805.47
2018-12-13T06:02:47.239Z,805.46
2018-12-13T06:03:47.255Z,805.47
2018-12-13T06:04:47.241Z,805.46
2018-12-13T06:05:47.242Z,805.45
2018-12-13T06:06:47.946Z,805.49
2018-12-13T06:07:47.241Z,805.50
2018-12-13T06:08:47.244Z,805.52
2018-12-13T06:09:47.241Z,805.49
2018-12-13T06:10:47.241Z,805.43
2018-12-13T06:11:47.241Z,805.48
2018-12-13T06:12:47.241Z,805.46
2018-12-13T06:13:47.244Z,805.47
2018-12-13T06:14:47.245Z,805.47
2018-12-13T06:15:47.241Z,805.46
2018-12-13T06:16:47.243Z,805.48
2018-12-13T06:17:47.242Z,805.53
2018-12-13T06:18:47.242Z,805.51
2018-12-13T06:19:47.241Z,805.49
2018-12-13T06:20:47.243Z,805.51
2018-12-13T06:21:47.241Z,805.54
2018-12-13T06:22:47.242Z,805.54
2018-12-13T06:23:47.242Z,805.53
2018-12-13T06:24:47.241Z,805.61
2018-12-13T06:25:47.243Z,805.57
2018-12-13T06:26:47.245Z,805.61
2018-12-13T06:27:47.245Z,805.56
2018-12-13T06:28:47.242Z,805.59
2018-12-13T06:29:48.975Z,805.60
2018-12-13T06:30:47.243Z,805.61
2018-12-13T06:31:47.245Z,805.58
2018-12-13T06:32:47.244Z,805.59
2018-12-13T06:33:47.248Z,805.62
2018-12-13T06:34:47.246Z,805.59
2018-12-13T06:35:47.244Z,805.59
2018-12-13T06:36:47.243Z,805.57
2018-12-13T06:37:47.243Z,805.55
2018-12-13T06:38:47.247Z,805.58
2018-12-13T06:39:47.244Z,805.56
2018-12-13T06:40:47.243Z,805.57
2018-12-13T06:41:47.244Z,805.59
2018-12-13T06:42:47.247Z,805.57
2018-12-13T06:43:47.243Z,805.55
2018-12-13T06:44:47.242Z,805.55
2018-12-13T06:45:47.247Z,805.55
2018-12-13T06:46:47.244Z,805.55
2018-12-13T06:47:47.243Z,805.52
2018-12-13T06:48:47.247Z,805.53
2018-12-13T06:49:47.245Z,805.52
2018-12-13T06:50:47.245Z,805.50
2018-12-13T06:51:47.246Z,805.46
2018-12-13T06:52:47.245Z,805.50
2018-12-13T06:53:47.246Z,805.50
2018-12-13T06:54:47.244Z,805.52
2018-12-13T06:55:47.242Z,805.48
2018-12-13T06:56:47.247Z,805.47
2018-12-13T06:57:47.248Z,805.51
2018-12-13T06:58:47.244Z,805.51
2018-12-13T06:59:47.247Z,805.51
2018-12-13T07:00:47.248Z,805.50
2018-12-13T07:01:47.245Z,805.52
2018-12-13T07:02:47.245Z,805.53
2018-12-13T07:03:47.247Z,805.56
2018-12-13T07:04:47.253Z,805.57
2018-12-13T07:05:47.245Z,805.56
2018-12-13T07:06:47.243Z,805.56
2018-12-13T07:07:47.247Z,805.63
2018-12-13T07:08:47.245Z,805.64
2018-12-13T07:09:47.247Z,805.59
2018-12-13T07:10:47.246Z,805.61
2018-12-13T07:11:47.246Z,805.65
2018-12-13T07:12:47.249Z,805.65
2018-12-13T07:13:47.247Z,805.65
2018-12-13T07:14:47.246Z,805.62
2018-12-13T07:15:47.245Z,805.65
2018-12-13T07:16:47.246Z,805.66
2018-12-13T07:17:47.245Z,805.67
2018-12-13T07:18:47.248Z,805.64
2018-12-13T07:19:47.247Z,805.68
2018-12-13T07:20:47.252Z,805.70
2018-12-13T07:21:47.248Z,805.72
2018-12-13T07:22:47.249Z,805.71
2018-12-13T07:23:47.248Z,805.70
2018-12-13T07:24:47.249Z,805.75
2018-12-13T07:25:47.248Z,805.73
2018-12-13T07:26:47.247Z,805.73
2018-12-13T07:27:47.254Z,805.75
2018-12-13T07:28:47.250Z,805.73
2018-12-13T07:29:47.253Z,805.71
2018-12-13T07:30:47.252Z,805.73
2018-12-13T07:31:47.249Z,805.73
2018-12-13T07:32:47.255Z,805.73
2018-12-13T07:33:47.250Z,805.75
2018-12-13T07:34:47.253Z,805.72
2018-12-13T07:35:47.254Z,805.72
2018-12-13T07:36:47.254Z,805.70
2018-12-13T07:37:47.253Z,805.76
2018-12-13T07:38:47.251Z,805.69
2018-12-13T07:39:47.252Z,805.67
2018-12-13T07:40:47.252Z,805.65
2018-12-13T07:41:47.251Z,805.68
2018-12-13T07:42:47.251Z,805.64
2018-12-13T07:43:47.254Z,805.68
2018-12-13T07:44:47.251Z,805.64
2018-12-13T07:45:47.257Z,805.64
2018-12-13T07:46:47.257Z,805.68
2018-12-13T07:47:47.261Z,805.67
2018-12-13T07:48:47.253Z,805.69
2018-12-13T07:49:47.255Z,805.66
2018-12-13T07:50:47.258Z,805.61
2018-12-13T07:51:47.254Z,805.62
2018-12-13T07:52:47.253Z,805.62
2018-12-13T07:53:47.259Z,805.65
2018-12-13T07:54:47.262Z,805.64
2018-12-13T07:55:47.256Z,805.62
2018-12-13T07:56:47.256Z,805.63
2018-12-13T07:57:47.255Z,805.63
2018-12-13T07:58:47.255Z,805.62
2018-12-13T07:59:47.257Z,805.61
2018-12-13T08:00:47.256Z,805.66
2018-12-13T08:01:47.260Z,805.63
2018-12-13T08:02:47.261Z,805.58
2018-12-13T08:03:47.258Z,805.61
2018-12-13T08:04:47.259Z,805.59
2018-12-13T08:05:47.259Z,805.60
2018-12-13T08:06:47.261Z,805.55
2018-12-13T08:07:47.261Z,805.63
2018-12-13T08:08:47.260Z,805.62
2018-12-13T08:09:47.260Z,805.57
2018-12-13T08:10:47.260Z,805.61
2018-12-13T08:11:47.263Z,805.59
2018-12-13T08:12:47.261Z,805.55
2018-12-13T08:13:47.264Z,805.54
2018-12-13T08:14:47.263Z,805.55
2018-12-13T08:15:47.264Z,805.52
2018-12-13T08:16:47.266Z,805.51
2018-12-13T08:17:47.267Z,805.56
2018-12-13T08:18:47.264Z,805.55
2018-12-13T08:19:47.265Z,805.54
2018-12-13T08:20:47.267Z,805.54
2018-12-13T08:21:47.266Z,805.56
2018-12-13T08:22:47.268Z,805.51
2018-12-13T08:23:47.269Z,805.48
2018-12-13T08:24:47.266Z,805.47
2018-12-13T08:25:47.270Z,805.45
2018-12-13T08:26:47.268Z,805.45
2018-12-13T08:27:47.267Z,805.42
2018-12-13T08:28:47.269Z,805.40
2018-12-13T08:29:47.270Z,805.42
2018-12-13T08:30:47.271Z,805.41
2018-12-13T08:31:47.270Z,805.36
2018-12-13T08:32:47.271Z,805.41
2018-12-13T08:33:47.273Z,805.41
2018-12-13T08:34:47.272Z,805.42
2018-12-13T08:35:47.273Z,805.42
2018-12-13T08:36:47.283Z,805.41
2018-12-13T08:37:47.275Z,805.42
2018-12-13T08:38:47.274Z,805.43
2018-12-13T08:39:47.276Z,805.45
2018-12-13T08:40:47.275Z,805.42
2018-12-13T08:41:47.280Z,805.42
2018-12-13T08:42:47.281Z,805.46
2018-12-13T08:43:47.280Z,805.44
2018-12-13T08:44:47.283Z,805.49
2018-12-13T08:45:47.285Z,805.44
2018-12-13T08:46:47.288Z,805.45
2018-12-13T08:47:47.293Z,805.41
2018-12-13T08:48:47.290Z,805.44
2018-12-13T08:49:47.297Z,805.43
2018-12-13T08:50:47.339Z,805.49
2018-12-13T08:51:47.303Z,805.45
2018-12-13T08:52:47.302Z,805.48
2018-12-13T08:53:47.308Z,805.46
2018-12-13T08:54:47.315Z,805.44
2018-12-13T08:55:47.310Z,805.44
2018-12-13T08:56:47.315Z,805.48
2018-12-13T08:57:47.316Z,805.47
2018-12-13T08:58:47.320Z,805.45
2018-12-13T08:59:47.323Z,805.46
2018-12-13T09:00:47.330Z,805.43
2018-12-13T09:01:47.331Z,805.47
2018-12-13T09:02:47.333Z,805.48
2018-12-13T09:03:47.337Z,805.49
2018-12-13T09:04:47.340Z,805.49
2018-12-13T09:05:47.352Z,805.48
2018-12-13T09:06:47.348Z,805.49
2018-12-13T09:07:47.353Z,805.50
2018-12-13T09:08:47.356Z,805.48
2018-12-13T09:09:47.360Z,805.51
2018-12-13T09:10:47.364Z,805.49
2018-12-13T09:11:47.366Z,805.49
2018-12-13T09:12:47.371Z,805.48
2018-12-13T09:13:47.373Z,805.45
2018-12-13T09:14:47.378Z,805.44
2018-12-13T09:15:47.384Z,805.41
2018-12-13T09:16:47.388Z,805.44
2018-12-13T09:17:47.393Z,805.38
2018-12-13T09:18:47.395Z,805.40
2018-12-13T09:19:47.402Z,805.42
2018-12-13T09:20:47.402Z,805.41
2018-12-13T09:21:47.406Z,805.42
2018-12-13T09:22:47.415Z,805.42
2018-12-13T09:23:47.418Z,805.41
2018-12-13T09:24:47.415Z,805.46
2018-12-13T09:25:47.419Z,805.46
2018-12-13T09:26:47.431Z,805.44
2018-12-13T09:27:47.429Z,805.48
2018-12-13T09:28:47.436Z,805.43
2018-12-13T09:29:47.464Z,805.41
2018-12-13T09:30:47.443Z,805.43
2018-12-13T09:31:47.442Z,805.41
2018-12-13T09:32:47.444Z,805.37
2018-12-13T09:33:47.450Z,805.38
2018-12-13T09:34:47.454Z,805.34
2018-12-13T09:35:47.457Z,805.39
2018-12-13T09:36:47.463Z,805.33
2018-12-13T09:37:47.890Z,805.35
2018-12-13T09:38:47.468Z,805.37
2018-12-13T09:39:47.476Z,805.36
2018-12-13T09:40:47.476Z,805.37
2018-12-13T09:41:47.482Z,805.35
2018-12-13T09:42:47.485Z,805.33
2018-12-13T09:43:47.485Z,805.34
2018-12-13T09:44:47.491Z,805.28
2018-12-13T09:45:47.501Z,805.30
2018-12-13T09:46:47.505Z,805.32
2018-12-13T09:47:47.503Z,805.29
2018-12-13T09:48:47.511Z,805.31
2018-12-13T09:49:47.512Z,805.29
2018-12-13T09:50:47.517Z,805.31
2018-12-13T09:51:47.519Z,805.34
2018-12-13T09:52:47.526Z,805.31
2018-12-13T09:53:47.529Z,805.30
2018-12-13T09:54:47.533Z,805.33
2018-12-13T09:55:47.534Z,805.34
2018-12-13T09:56:47.540Z,805.33
2018-12-13T09:57:47.545Z,805.33
2018-12-13T09:58:47.550Z,805.34
2018-12-13T09:59:47.558Z,805.35
2018-12-13T10:00:47.565Z,805.33
2018-12-13T10:01:47.568Z,805.31
2018-12-13T10:02:47.570Z,805.27
2018-12-13T10:03:47.573Z,805.35
2018-12-13T10:04:47.577Z,805.30
2018-12-13T10:05:47.583Z,805.31
2018-12-13T10:06:47.589Z,805.25
2018-12-13T10:07:47.593Z,805.26
2018-12-13T10:08:47.601Z,805.27
2018-12-13T10:09:47.608Z,805.28
2018-12-13T10:10:47.610Z,805.26
2018-12-13T10:11:47.615Z,805.25
2018-12-13T10:12:47.623Z,805.25
2018-12-13T10:13:47.625Z,805.25
2018-12-13T10:14:47.636Z,805.23
2018-12-13T10:15:47.638Z,805.26
2018-12-13T10:16:47.643Z,805.24
2018-12-13T10:17:47.650Z,805.24
2018-12-13T10:18:47.654Z,805.24
2018-12-13T10:19:47.658Z,805.25
2018-12-13T10:20:47.664Z,805.29
2018-12-13T10:21:47.670Z,805.23
2018-12-13T10:22:47.678Z,805.23
2018-12-13T10:23:47.683Z,805.24
2018-12-13T10:24:47.691Z,805.22
2018-12-13T10:25:47.693Z,805.18
2018-12-13T10:26:47.699Z,805.18
2018-12-13T10:27:47.705Z,805.16
2018-12-13T10:28:47.709Z,805.18
2018-12-13T10:29:47.727Z,805.15
2018-12-13T10:30:47.723Z,805.16
2018-12-13T10:31:47.732Z,805.17
2018-12-13T10:32:47.733Z,805.13
2018-12-13T10:33:47.742Z,805.11
2018-12-13T10:34:47.748Z,805.11
2018-12-13T10:35:47.751Z,805.06
2018-12-13T10:36:47.758Z,805.07
2018-12-13T10:37:47.764Z,805.03
2018-12-13T10:38:53.005Z,805.09
2018-12-13T10:39:47.776Z,805.02
2018-12-13T10:40:47.782Z,805.02
2018-12-13T10:41:47.787Z,804.97
2018-12-13T10:42:47.793Z,805.00
2018-12-13T10:43:47.800Z,804.98
2018-12-13T10:44:47.811Z,804.99
2018-12-13T10:45:47.817Z,805.01
2018-12-13T10:46:47.820Z,804.99
2018-12-13T10:47:47.823Z,805.00
2018-12-13T10:48:47.830Z,804.97
2018-12-13T10:49:47.837Z,804.94
2018-12-13T10:50:47.842Z,804.97
2018-12-13T10:51:47.850Z,804.98
2018-12-13T10:52:47.856Z,804.92
2018-12-13T10:53:47.863Z,804.99
2018-12-13T10:54:47.871Z,804.97
2018-12-13T10:55:47.878Z,804.93
2018-12-13T10:56:47.883Z,804.99
2018-12-13T10:57:47.892Z,804.99
2018-12-13T10:58:47.900Z,804.96
2018-12-13T10:59:47.903Z,804.95
2018-12-13T11:00:47.910Z,804.94
2018-12-13T11:01:47.923Z,804.94
2018-12-13T11:02:47.924Z,804.94
2018-12-13T11:03:47.931Z,804.92
2018-12-13T11:04:47.935Z,804.95
2018-12-13T11:05:47.944Z,804.91
2018-12-13T11:06:47.949Z,804.91
2018-12-13T11:07:47.956Z,804.91
2018-12-13T11:08:47.962Z,804.89
2018-12-13T11:09:47.980Z,804.89
2018-12-13T11:10:48.054Z,804.94
2018-12-13T11:11:47.985Z,804.94
2018-12-13T11:12:47.992Z,804.98
2018-12-13T11:13:48.000Z,804.94
2018-12-13T11:14:48.005Z,804.92
2018-12-13T11:15:48.011Z,804.93
2018-12-13T11:16:48.018Z,804.96
2018-12-13T11:17:48.025Z,804.99
2018-12-13T11:18:48.032Z,804.99
2018-12-13T11:19:48.043Z,804.95
2018-12-13T11:20:48.052Z,804.97
2018-12-13T11:21:48.055Z,804.90
2018-12-13T11:22:48.061Z,804.87
2018-12-13T11:23:48.069Z,804.92
2018-12-13T11:24:48.074Z,804.87
2018-12-13T11:25:48.081Z,804.86
2018-12-13T11:26:48.090Z,804.86
2018-12-13T11:27:48.096Z,804.85
2018-12-13T11:28:48.101Z,804.80
2018-12-13T11:29:48.109Z,804.84
2018-12-13T11:30:48.124Z,804.79
2018-12-13T11:31:48.123Z,804.77
2018-12-13T11:32:48.131Z,804.77
2018-12-13T11:33:48.140Z,804.77
2018-12-13T11:34:48.147Z,804.73
2018-12-13T11:35:48.152Z,804.78
2018-12-13T11:36:48.162Z,804.73
2018-12-13T11:37:48.169Z,804.79
2018-12-13T11:38:48.175Z,804.77
2018-12-13T11:39:48.182Z,804.74
2018-12-13T11:40:48.192Z,804.79
2018-12-13T11:41:48.199Z,804.70
2018-12-13T11:42:48.205Z,804.73
2018-12-13T11:43:48.213Z,804.73
2018-12-13T11:44:48.224Z,804.70
2018-12-13T11:45:48.231Z,804.70
2018-12-13T11:46:48.236Z,804.65
2018-12-13T11:47:48.246Z,804.67
2018-12-13T11:48:48.253Z,804.70
2018-12-13T11:49:48.257Z,804.70
2018-12-13T11:50:48.268Z,804.62
2018-12-13T11:51:48.273Z,804.72
2018-12-13T11:52:48.284Z,804.66
2018-12-13T11:53:48.290Z,804.72
2018-12-13T11:54:48.300Z,804.71
2018-12-13T11:55:48.304Z,804.67
2018-12-13T11:56:48.311Z,804.67
2018-12-13T11:57:48.323Z,804.65
2018-12-13T11:58:48.332Z,804.70
2018-12-13T11:59:48.335Z,804.66
2018-12-13T12:00:48.348Z,804.71
2018-12-13T12:01:48.358Z,804.67
2018-12-13T12:02:48.362Z,804.73
2018-12-13T12:03:48.366Z,804.68
2018-12-13T12:04:48.376Z,804.68
2018-12-13T12:05:48.387Z,804.67
2018-12-13T12:06:48.398Z,804.68
2018-12-13T12:07:48.402Z,804.66
2018-12-13T12:08:48.410Z,804.63
2018-12-13T12:09:48.425Z,804.62
2018-12-13T12:10:48.427Z,804.62
2018-12-13T12:11:48.436Z,804.63
2018-12-13T12:12:48.443Z,804.62
2018-12-13T12:13:48.457Z,804.67
2018-12-13T12:14:48.460Z,804.62
2018-12-13T12:15:48.468Z,804.70
2018-12-13T12:16:48.476Z,804.70
2018-12-13T12:17:48.485Z,804.70
2018-12-13T12:18:48.492Z,804.72
2018-12-13T12:19:48.500Z,804.69
2018-12-13T12:20:48.512Z,804.69
2018-12-13T12:21:48.519Z,804.71
2018-12-13T12:22:48.525Z,804.66
2018-12-13T12:23:48.534Z,804.66
2018-12-13T12:24:48.541Z,804.62
2018-12-13T12:25:48.551Z,804.68
2018-12-13T12:26:48.562Z,804.61
2018-12-13T12:27:48.583Z,804.62
2018-12-13T12:28:48.580Z,804.66